sensor_id;sensor_type;location;lat;lon;timestamp;pressure;altitude;pressure_sealevel;temperature;humidity
13952;BME280;39535;52.192;9.886;2023-04-20T00:00:55;100944.41;;;7.30;78.26
13952;BME280;39535;52.192;9.886;2023-04-20T00:03:28;100934.91;;;7.28;78.61
13952;BME280;39535;52.192;9.886;2023-04-20T00:05:57;100930.56;;;7.28;79.43
13952;BME280;39535;52.192;9.886;2023-04-20T00:08:28;100914.94;;;7.19;78.69
13952;BME280;39535;52.192;9.886;2023-04-20T00:10:55;100920.13;;;7.14;79.31
13952;BME280;39535;52.192;9.886;2023-04-20T00:13:37;100905.41;;;7.10;80.81
13952;BME280;39535;52.192;9.886;2023-04-20T00:16:03;100863.84;;;7.01;81.02
13952;BME280;39535;52.192;9.886;2023-04-20T00:18:34;100850.03;;;7.05;80.83
13952;BME280;39535;52.192;9.886;2023-04-20T00:21:06;100861.31;;;7.12;80.49
13952;BME280;39535;52.192;9.886;2023-04-20T00:23:38;100869.97;;;7.14;80.63
13952;BME280;39535;52.192;9.886;2023-04-20T00:26:10;100878.59;;;7.13;79.94
13952;BME280;39535;52.192;9.886;2023-04-20T00:28:41;100894.16;;;7.05;80.04
13952;BME280;39535;52.192;9.886;2023-04-20T00:31:13;100897.63;;;7.04;79.93
13952;BME280;39535;52.192;9.886;2023-04-20T00:33:46;100880.28;;;6.92;81.41
13952;BME280;39535;52.192;9.886;2023-04-20T00:36:15;100862.97;;;6.90;81.43
13952;BME280;39535;52.192;9.886;2023-04-20T00:38:48;100859.53;;;6.88;82.36
13952;BME280;39535;52.192;9.886;2023-04-20T00:41:17;100839.63;;;6.94;83.76
13952;BME280;39535;52.192;9.886;2023-04-20T00:43:52;100824.94;;;6.98;83.96
13952;BME280;39535;52.192;9.886;2023-04-20T00:46:21;100825.78;;;6.94;83.64
13952;BME280;39535;52.192;9.886;2023-04-20T00:48:50;100805.88;;;6.94;83.64
13952;BME280;39535;52.192;9.886;2023-04-20T00:51:24;100804.19;;;6.98;83.50
13952;BME280;39535;52.192;9.886;2023-04-20T00:53:53;100800.69;;;6.93;84.15
13952;BME280;39535;52.192;9.886;2023-04-20T00:56:28;100809.34;;;6.95;84.48
13952;BME280;39535;52.192;9.886;2023-04-20T00:58:56;100809.34;;;7.00;84.23
13952;BME280;39535;52.192;9.886;2023-04-20T01:01:29;100820.63;;;7.02;83.51
13952;BME280;39535;52.192;9.886;2023-04-20T01:03:57;100818.03;;;7.00;84.80
13952;BME280;39535;52.192;9.886;2023-04-20T01:06:28;100801.56;;;6.95;84.68
13952;BME280;39535;52.192;9.886;2023-04-20T01:08:59;100813.66;;;6.97;83.80
13952;BME280;39535;52.192;9.886;2023-04-20T01:11:32;100792.91;;;6.91;84.29
13952;BME280;39535;52.192;9.886;2023-04-20T01:14:08;100802.44;;;6.92;84.23
13952;BME280;39535;52.192;9.886;2023-04-20T01:16:35;100802.44;;;6.94;84.42
13952;BME280;39535;52.192;9.886;2023-04-20T01:19:04;100799.81;;;6.95;84.34
13952;BME280;39535;52.192;9.886;2023-04-20T01:21:39;100795.47;;;6.81;85.37
13952;BME280;39535;52.192;9.886;2023-04-20T01:24:09;100792.88;;;6.84;84.28
13952;BME280;39535;52.192;9.886;2023-04-20T01:26:40;100801.53;;;6.87;84.54
13952;BME280;39535;52.192;9.886;2023-04-20T01:29:11;100796.38;;;6.86;85.02
13952;BME280;39535;52.192;9.886;2023-04-20T01:31:39;100794.63;;;6.89;84.97
13952;BME280;39535;52.192;9.886;2023-04-20T01:34:14;100794.63;;;6.95;85.24
13952;BME280;39535;52.192;9.886;2023-04-20T01:36:47;100796.38;;;6.96;84.44
13952;BME280;39535;52.192;9.886;2023-04-20T01:39:18;100815.41;;;6.94;83.95
13952;BME280;39535;52.192;9.886;2023-04-20T01:41:46;100809.34;;;6.86;83.94
13952;BME280;39535;52.192;9.886;2023-04-20T01:44:18;100807.59;;;6.89;84.06
13952;BME280;39535;52.192;9.886;2023-04-20T01:46:51;100795.50;;;6.90;85.21
13952;BME280;39535;52.192;9.886;2023-04-20T01:49:22;100792.91;;;6.91;84.42
13952;BME280;39535;52.192;9.886;2023-04-20T01:51:57;100814.53;;;6.90;83.95
13952;BME280;39535;52.192;9.886;2023-04-20T01:54:25;100826.59;;;6.84;83.61
13952;BME280;39535;52.192;9.886;2023-04-20T01:56:57;100820.56;;;6.85;83.98
13952;BME280;39535;52.192;9.886;2023-04-20T01:59:25;100813.66;;;6.82;84.25
13952;BME280;39535;52.192;9.886;2023-04-20T02:01:58;100805.00;;;6.80;85.08
13952;BME280;39535;52.192;9.886;2023-04-20T02:04:30;100801.53;;;6.80;85.38
13952;BME280;39535;52.192;9.886;2023-04-20T02:07:02;100810.19;;;6.83;84.39
13952;BME280;39535;52.192;9.886;2023-04-20T02:09:32;100820.56;;;6.83;84.15
13952;BME280;39535;52.192;9.886;2023-04-20T02:12:05;100817.09;;;6.80;84.74
13952;BME280;39535;52.192;9.886;2023-04-20T02:14:34;100798.94;;;6.81;84.62
13952;BME280;39535;52.192;9.886;2023-04-20T02:17:01;100801.56;;;6.84;83.48
13952;BME280;39535;52.192;9.886;2023-04-20T02:19:37;100818.84;;;6.82;84.38
13952;BME280;39535;52.192;9.886;2023-04-20T02:22:08;100817.97;;;6.83;84.66
13952;BME280;39535;52.192;9.886;2023-04-20T02:24:45;100813.63;;;6.79;84.32
13952;BME280;39535;52.192;9.886;2023-04-20T02:27:11;100804.97;;;6.77;84.62
13952;BME280;39535;52.192;9.886;2023-04-20T02:29:43;100802.38;;;6.75;84.97
13952;BME280;39535;52.192;9.886;2023-04-20T02:32:13;100798.91;;;6.73;85.37
13952;BME280;39535;52.192;9.886;2023-04-20T02:34:48;100779.88;;;6.70;86.19
13952;BME280;39535;52.192;9.886;2023-04-20T02:37:15;100760.88;;;6.72;85.72
13952;BME280;39535;52.192;9.886;2023-04-20T02:39:41;100766.06;;;6.79;85.13
13952;BME280;39535;52.192;9.886;2023-04-20T02:42:23;100773.84;;;6.82;85.61
13952;BME280;39535;52.192;9.886;2023-04-20T02:44:50;100775.56;;;6.80;84.99
13952;BME280;39535;52.192;9.886;2023-04-20T02:47:22;100767.81;;;6.72;87.13
13952;BME280;39535;52.192;9.886;2023-04-20T02:49:52;100755.69;;;6.74;86.81
13952;BME280;39535;52.192;9.886;2023-04-20T02:52:23;100765.22;;;6.78;86.05
13952;BME280;39535;52.192;9.886;2023-04-20T02:54:59;100767.81;;;6.81;86.85
13952;BME280;39535;52.192;9.886;2023-04-20T02:57:27;100759.16;;;6.81;86.67
13952;BME280;39535;52.192;9.886;2023-04-20T03:00:00;100761.75;;;6.85;85.72
13952;BME280;39535;52.192;9.886;2023-04-20T03:02:29;100774.72;;;6.87;86.44
13952;BME280;39535;52.192;9.886;2023-04-20T03:04:59;100775.63;;;6.86;86.35
13952;BME280;39535;52.192;9.886;2023-04-20T03:07:33;100773.00;;;6.87;85.92
13952;BME280;39535;52.192;9.886;2023-04-20T03:10:03;100773.88;;;6.88;86.08
13952;BME280;39535;52.192;9.886;2023-04-20T03:12:34;100767.81;;;6.89;86.38
13952;BME280;39535;52.192;9.886;2023-04-20T03:15:09;100776.47;;;6.89;85.71
13952;BME280;39535;52.192;9.886;2023-04-20T03:17:37;100773.88;;;6.92;85.88
13952;BME280;39535;52.192;9.886;2023-04-20T03:20:07;100776.50;;;6.94;86.24
13952;BME280;39535;52.192;9.886;2023-04-20T03:22:41;100782.53;;;6.96;85.44
13952;BME280;39535;52.192;9.886;2023-04-20T03:25:10;100780.81;;;6.98;86.54
13952;BME280;39535;52.192;9.886;2023-04-20T03:27:44;100775.59;;;6.95;86.64
13952;BME280;39535;52.192;9.886;2023-04-20T03:30:14;100779.06;;;6.99;86.25
13952;BME280;39535;52.192;9.886;2023-04-20T03:32:43;100763.50;;;6.92;87.06
13952;BME280;39535;52.192;9.886;2023-04-20T03:35:15;100762.63;;;6.96;87.29
13952;BME280;39535;52.192;9.886;2023-04-20T03:37:48;100765.22;;;6.95;86.47
13952;BME280;39535;52.192;9.886;2023-04-20T03:40:20;100770.44;;;6.98;86.02
13952;BME280;39535;52.192;9.886;2023-04-20T03:42:48;100782.53;;;6.97;85.82
13952;BME280;39535;52.192;9.886;2023-04-20T03:45:22;100791.19;;;6.98;85.60
13952;BME280;39535;52.192;9.886;2023-04-20T03:47:52;100793.78;;;6.96;85.78
13952;BME280;39535;52.192;9.886;2023-04-20T03:50:23;100785.13;;;6.96;86.65
13952;BME280;39535;52.192;9.886;2023-04-20T03:52:53;100774.75;;;6.88;87.14
13952;BME280;39535;52.192;9.886;2023-04-20T03:55:26;100774.75;;;6.93;86.52
13952;BME280;39535;52.192;9.886;2023-04-20T03:57:58;100780.81;;;6.86;87.32
13952;BME280;39535;52.192;9.886;2023-04-20T04:00:30;100780.81;;;6.92;86.46
13952;BME280;39535;52.192;9.886;2023-04-20T04:03:02;100782.53;;;6.88;87.12
13952;BME280;39535;52.192;9.886;2023-04-20T04:05:33;100792.88;;;6.85;86.97
13952;BME280;39535;52.192;9.886;2023-04-20T04:08:02;100787.72;;;6.88;86.96
13952;BME280;39535;52.192;9.886;2023-04-20T04:10:34;100787.72;;;6.93;86.75
13952;BME280;39535;52.192;9.886;2023-04-20T04:13:04;100779.06;;;6.91;87.60
13952;BME280;39535;52.192;9.886;2023-04-20T04:15:37;100780.78;;;6.93;86.74
13952;BME280;39535;52.192;9.886;2023-04-20T04:18:07;100769.56;;;6.88;87.38
13952;BME280;39535;52.192;9.886;2023-04-20T04:20:38;100773.03;;;6.92;87.23
13952;BME280;39535;52.192;9.886;2023-04-20T04:23:11;100775.63;;;6.98;86.61
13952;BME280;39535;52.192;9.886;2023-04-20T04:25:43;100780.81;;;6.98;86.75
13952;BME280;39535;52.192;9.886;2023-04-20T04:28:11;100792.91;;;7.01;86.42
13952;BME280;39535;52.192;9.886;2023-04-20T04:30:44;100799.84;;;7.05;85.81
13952;BME280;39535;52.192;9.886;2023-04-20T04:33:17;100798.13;;;7.04;86.73
13952;BME280;39535;52.192;9.886;2023-04-20T04:35:46;100793.78;;;7.00;87.29
13952;BME280;39535;52.192;9.886;2023-04-20T04:38:17;100773.91;;;6.94;88.42
13952;BME280;39535;52.192;9.886;2023-04-20T04:40:49;100764.34;;;6.93;88.39
13952;BME280;39535;52.192;9.886;2023-04-20T04:43:19;100754.00;;;6.90;89.07
13952;BME280;39535;52.192;9.886;2023-04-20T04:45:52;100742.75;;;6.94;88.87
13952;BME280;39535;52.192;9.886;2023-04-20T04:48:24;100753.13;;;6.97;87.68
13952;BME280;39535;52.192;9.886;2023-04-20T04:50:56;100757.47;;;6.98;88.05
13952;BME280;39535;52.192;9.886;2023-04-20T04:53:22;100741.00;;;6.94;88.46
13952;BME280;39535;52.192;9.886;2023-04-20T04:55:49;100743.59;;;6.94;88.36
13952;BME280;39535;52.192;9.886;2023-04-20T04:58:15;100744.47;;;6.95;88.02
13952;BME280;39535;52.192;9.886;2023-04-20T05:00:43;100737.53;;;6.91;89.60
13952;BME280;39535;52.192;9.886;2023-04-20T05:03:09;100738.44;;;6.96;89.62
13952;BME280;39535;52.192;9.886;2023-04-20T05:05:35;100741.88;;;6.96;88.84
13952;BME280;39535;52.192;9.886;2023-04-20T05:08:02;100741.88;;;7.01;88.52
13952;BME280;39535;52.192;9.886;2023-04-20T05:10:28;100757.44;;;7.07;88.43
13952;BME280;39535;52.192;9.886;2023-04-20T05:12:55;100781.69;;;7.08;88.34
13952;BME280;39535;52.192;9.886;2023-04-20T05:15:22;100786.88;;;7.09;87.21
13952;BME280;39535;52.192;9.886;2023-04-20T05:17:52;100796.41;;;7.12;87.16
13952;BME280;39535;52.192;9.886;2023-04-20T05:20:18;100791.19;;;7.04;87.49
13952;BME280;39535;52.192;9.886;2023-04-20T05:22:44;100789.47;;;7.02;88.30
13952;BME280;39535;52.192;9.886;2023-04-20T05:25:11;100775.59;;;7.00;88.54
13952;BME280;39535;52.192;9.886;2023-04-20T05:27:38;100778.22;;;7.06;88.35
13952;BME280;39535;52.192;9.886;2023-04-20T05:30:05;100792.06;;;7.06;88.70
13952;BME280;39535;52.192;9.886;2023-04-20T05:32:32;100786.88;;;7.06;88.27
13952;BME280;39535;52.192;9.886;2023-04-20T05:34:59;100783.41;;;7.10;88.41
13952;BME280;39535;52.192;9.886;2023-04-20T05:37:26;100798.13;;;7.16;87.30
13952;BME280;39535;52.192;9.886;2023-04-20T05:39:52;100813.72;;;7.14;88.55
13952;BME280;39535;52.192;9.886;2023-04-20T05:42:18;100805.06;;;7.14;88.06
13952;BME280;39535;52.192;9.886;2023-04-20T05:44:45;100804.19;;;7.16;87.98
13952;BME280;39535;52.192;9.886;2023-04-20T05:47:11;100814.59;;;7.20;88.04
13952;BME280;39535;52.192;9.886;2023-04-20T05:49:37;100818.03;;;7.17;88.12
13952;BME280;39535;52.192;9.886;2023-04-20T05:52:06;100808.50;;;7.19;88.49
13952;BME280;39535;52.192;9.886;2023-04-20T05:54:32;100816.31;;;7.27;88.47
13952;BME280;39535;52.192;9.886;2023-04-20T05:56:58;100831.88;;;7.25;88.78
13952;BME280;39535;52.192;9.886;2023-04-20T05:59:25;100821.50;;;7.22;88.73
13952;BME280;39535;52.192;9.886;2023-04-20T06:01:52;100822.38;;;7.23;88.74
13952;BME280;39535;52.192;9.886;2023-04-20T06:04:18;100827.56;;;7.27;88.13
13952;BME280;39535;52.192;9.886;2023-04-20T06:06:44;100844.03;;;7.35;87.72
13952;BME280;39535;52.192;9.886;2023-04-20T06:09:12;100857.84;;;7.39;87.44
13952;BME280;39535;52.192;9.886;2023-04-20T06:11:38;100859.59;;;7.40;87.25
13952;BME280;39535;52.192;9.886;2023-04-20T06:14:05;100866.53;;;7.38;87.28
13952;BME280;39535;52.192;9.886;2023-04-20T06:16:31;100889.03;;;7.39;86.11
13952;BME280;39535;52.192;9.886;2023-04-20T06:18:57;100904.63;;;7.42;85.14
13952;BME280;39535;52.192;9.886;2023-04-20T06:21:24;100903.75;;;7.35;86.28
13952;BME280;39535;52.192;9.886;2023-04-20T06:23:50;100900.31;;;7.40;86.95
13952;BME280;39535;52.192;9.886;2023-04-20T06:26:18;100913.31;;;7.47;85.38
13952;BME280;39535;52.192;9.886;2023-04-20T06:28:45;100910.69;;;7.47;85.84
13952;BME280;39535;52.192;9.886;2023-04-20T06:31:12;100907.25;;;7.50;86.27
13952;BME280;39535;52.192;9.886;2023-04-20T06:33:38;100915.91;;;7.61;85.10
13952;BME280;39535;52.192;9.886;2023-04-20T06:36:05;100923.72;;;7.73;84.85
13952;BME280;39535;52.192;9.886;2023-04-20T06:38:32;100930.63;;;7.82;84.57
13952;BME280;39535;52.192;9.886;2023-04-20T06:40:58;100947.97;;;7.86;84.90
13952;BME280;39535;52.192;9.886;2023-04-20T06:43:28;100954.91;;;7.86;84.00
13952;BME280;39535;52.192;9.886;2023-04-20T06:45:54;100983.47;;;7.66;83.41
13952;BME280;39535;52.192;9.886;2023-04-20T06:48:20;100981.75;;;7.77;83.54
13952;BME280;39535;52.192;9.886;2023-04-20T06:50:47;101004.25;;;7.78;82.18
13952;BME280;39535;52.192;9.886;2023-04-20T06:53:14;101019.00;;;7.82;81.14
13952;BME280;39535;52.192;9.886;2023-04-20T06:55:40;101046.72;;;7.82;81.78
13952;BME280;39535;52.192;9.886;2023-04-20T06:58:06;101041.53;;;7.80;81.99
13952;BME280;39535;52.192;9.886;2023-04-20T07:00:34;101040.66;;;7.81;81.16
13952;BME280;39535;52.192;9.886;2023-04-20T07:03:00;101048.47;;;7.87;82.12
13952;BME280;39535;52.192;9.886;2023-04-20T07:05:27;101039.81;;;7.91;81.51
13952;BME280;39535;52.192;9.886;2023-04-20T07:07:53;101031.16;;;7.95;81.80
13952;BME280;39535;52.192;9.886;2023-04-20T07:10:20;101050.22;;;7.99;80.97
13952;BME280;39535;52.192;9.886;2023-04-20T07:12:46;101074.50;;;8.10;79.55
13952;BME280;39535;52.192;9.886;2023-04-20T07:15:13;101090.13;;;8.13;79.70
13952;BME280;39535;52.192;9.886;2023-04-20T07:17:40;101124.78;;;8.15;77.83
13952;BME280;39535;52.192;9.886;2023-04-20T07:20:07;101148.19;;;8.11;77.22
13952;BME280;39535;52.192;9.886;2023-04-20T07:22:34;101172.44;;;8.11;77.43
13952;BME280;39535;52.192;9.886;2023-04-20T07:25:02;101182.00;;;8.17;77.72
13952;BME280;39535;52.192;9.886;2023-04-20T07:27:28;101172.47;;;8.22;77.62
13952;BME280;39535;52.192;9.886;2023-04-20T07:29:55;101177.69;;;8.24;78.38
13952;BME280;39535;52.192;9.886;2023-04-20T07:32:23;101177.69;;;8.30;77.33
13952;BME280;39535;52.192;9.886;2023-04-20T07:34:51;101197.69;;;8.42;76.91
13952;BME280;39535;52.192;9.886;2023-04-20T07:37:18;101202.94;;;8.46;76.14
13952;BME280;39535;52.192;9.886;2023-04-20T07:39:44;101219.38;;;8.44;75.81
13952;BME280;39535;52.192;9.886;2023-04-20T07:42:10;101231.56;;;8.46;76.50
13952;BME280;39535;52.192;9.886;2023-04-20T07:44:37;101241.06;;;8.44;75.92
13952;BME280;39535;52.192;9.886;2023-04-20T07:47:03;101240.16;;;8.41;75.80
13952;BME280;39535;52.192;9.886;2023-04-20T07:49:30;101251.47;;;8.44;75.44
13952;BME280;39535;52.192;9.886;2023-04-20T07:51:57;101248.00;;;8.44;76.61
13952;BME280;39535;52.192;9.886;2023-04-20T07:54:23;101219.38;;;8.44;77.39
13952;BME280;39535;52.192;9.886;2023-04-20T07:56:50;101225.47;;;8.43;76.38
13952;BME280;39535;52.192;9.886;2023-04-20T07:59:17;101240.19;;;8.44;75.74
13952;BME280;39535;52.192;9.886;2023-04-20T08:01:43;101254.06;;;8.44;75.38
13952;BME280;39535;52.192;9.886;2023-04-20T08:04:10;101257.53;;;8.48;74.70
13952;BME280;39535;52.192;9.886;2023-04-20T08:06:36;101268.00;;;8.57;74.48
13952;BME280;39535;52.192;9.886;2023-04-20T08:09:04;101269.72;;;8.61;75.62
13952;BME280;39535;52.192;9.886;2023-04-20T08:11:31;101261.94;;;8.61;75.31
13952;BME280;39535;52.192;9.886;2023-04-20T08:13:58;101262.78;;;8.60;75.52
13952;BME280;39535;52.192;9.886;2023-04-20T08:16:24;101269.72;;;8.55;74.32
13952;BME280;39535;52.192;9.886;2023-04-20T08:18:50;101279.25;;;8.58;74.28
13952;BME280;39535;52.192;9.886;2023-04-20T08:21:17;101284.47;;;8.59;74.89
13952;BME280;39535;52.192;9.886;2023-04-20T08:23:46;101279.25;;;8.58;74.46
13952;BME280;39535;52.192;9.886;2023-04-20T08:26:15;101288.81;;;8.55;74.57
13952;BME280;39535;52.192;9.886;2023-04-20T08:28:41;101281.84;;;8.56;74.37
13952;BME280;39535;52.192;9.886;2023-04-20T08:31:08;101284.50;;;8.62;74.53
13952;BME280;39535;52.192;9.886;2023-04-20T08:33:35;101300.13;;;8.68;74.36
13952;BME280;39535;52.192;9.886;2023-04-20T08:36:01;101293.22;;;8.77;74.75
13952;BME280;39535;52.192;9.886;2023-04-20T08:38:29;101278.44;;;8.82;75.15
13952;BME280;39535;52.192;9.886;2023-04-20T08:40:55;101284.53;;;8.79;74.96
13952;BME280;39535;52.192;9.886;2023-04-20T08:43:23;101277.59;;;8.78;74.69
13952;BME280;39535;52.192;9.886;2023-04-20T08:45:50;101286.25;;;8.82;73.92
13952;BME280;39535;52.192;9.886;2023-04-20T08:48:18;101296.69;;;8.80;73.74
13952;BME280;39535;52.192;9.886;2023-04-20T08:50:45;101315.78;;;8.82;73.12
13952;BME280;39535;52.192;9.886;2023-04-20T08:53:12;101331.41;;;8.85;72.65
13952;BME280;39535;52.192;9.886;2023-04-20T08:55:39;101353.13;;;8.92;71.50
13952;BME280;39535;52.192;9.886;2023-04-20T08:58:05;101366.13;;;8.90;72.62
13952;BME280;39535;52.192;9.886;2023-04-20T09:00:33;101367.91;;;9.01;73.32
13952;BME280;39535;52.192;9.886;2023-04-20T09:02:59;101350.53;;;9.09;72.79
13952;BME280;39535;52.192;9.886;2023-04-20T09:05:26;101357.53;;;9.22;71.94
13952;BME280;39535;52.192;9.886;2023-04-20T09:07:54;101361.88;;;9.34;71.37
13952;BME280;39535;52.192;9.886;2023-04-20T09:10:21;101388.81;;;9.41;70.25
13952;BME280;39535;52.192;9.886;2023-04-20T09:12:49;101414.88;;;9.50;69.92
13952;BME280;39535;52.192;9.886;2023-04-20T09:15:26;101427.06;;;9.49;70.57
13952;BME280;39535;52.192;9.886;2023-04-20T09:17:54;101432.28;;;9.62;68.78
13952;BME280;39535;52.192;9.886;2023-04-20T09:20:30;101454.00;;;9.73;68.76
13952;BME280;39535;52.192;9.886;2023-04-20T09:22:57;101477.47;;;9.82;67.40
13952;BME280;39535;52.192;9.886;2023-04-20T09:25:24;101503.56;;;9.84;67.21
13952;BME280;39535;52.192;9.886;2023-04-20T09:27:56;101538.34;;;9.97;65.66
13952;BME280;39535;52.192;9.886;2023-04-20T09:30:22;101580.94;;;9.99;64.74
13952;BME280;39535;52.192;9.886;2023-04-20T09:33:00;101615.72;;;9.90;65.15
13952;BME280;39535;52.192;9.886;2023-04-20T09:35:27;101604.41;;;9.94;65.56
13952;BME280;39535;52.192;9.886;2023-04-20T09:37:53;101607.03;;;9.94;64.64
13952;BME280;39535;52.192;9.886;2023-04-20T09:40:20;101638.31;;;9.94;64.12
13952;BME280;39535;52.192;9.886;2023-04-20T09:42:48;101646.16;;;9.89;63.81
13952;BME280;39535;52.192;9.886;2023-04-20T09:45:16;101666.09;;;9.83;64.54
13952;BME280;39535;52.192;9.886;2023-04-20T09:47:43;101649.59;;;9.88;65.49
13952;BME280;39535;52.192;9.886;2023-04-20T09:50:11;101615.72;;;9.94;65.03
13952;BME280;39535;52.192;9.886;2023-04-20T09:52:38;101636.56;;;9.90;64.66
13952;BME280;39535;52.192;9.886;2023-04-20T09:55:05;101637.47;;;10.03;64.05
13952;BME280;39535;52.192;9.886;2023-04-20T09:57:33;101653.16;;;10.09;62.98
13952;BME280;39535;52.192;9.886;2023-04-20T10:00:00;101660.06;;;10.01;64.56
13952;BME280;39535;52.192;9.886;2023-04-20T10:02:31;101663.53;;;9.93;64.04
13952;BME280;39535;52.192;9.886;2023-04-20T10:04:58;101654.81;;;9.82;65.88
13952;BME280;39535;52.192;9.886;2023-04-20T10:07:27;101631.38;;;9.93;64.30
13952;BME280;39535;52.192;9.886;2023-04-20T10:10:05;101628.78;;;10.10;65.19
13952;BME280;39535;52.192;9.886;2023-04-20T10:12:31;101600.16;;;10.30;66.28
13952;BME280;39535;52.192;9.886;2023-04-20T10:15:01;101600.16;;;10.44;63.40
13952;BME280;39535;52.192;9.886;2023-04-20T10:17:29;101634.09;;;10.42;62.57
13952;BME280;39535;52.192;9.886;2023-04-20T10:19:56;101651.47;;;10.34;62.36
13952;BME280;39535;52.192;9.886;2023-04-20T10:22:28;101674.91;;;10.20;63.34
13952;BME280;39535;52.192;9.886;2023-04-20T10:24:57;101655.78;;;10.18;63.26
13952;BME280;39535;52.192;9.886;2023-04-20T10:27:24;101661.00;;;10.18;63.09
13952;BME280;39535;52.192;9.886;2023-04-20T10:29:50;101667.06;;;10.19;61.86
13952;BME280;39535;52.192;9.886;2023-04-20T10:32:21;101694.91;;;10.17;62.89
13952;BME280;39535;52.192;9.886;2023-04-20T10:34:59;101662.75;;;10.25;62.72
13952;BME280;39535;52.192;9.886;2023-04-20T10:37:27;101666.28;;;10.33;62.71
13952;BME280;39535;52.192;9.886;2023-04-20T10:39:53;101675.00;;;10.39;60.63
13952;BME280;39535;52.192;9.886;2023-04-20T10:42:20;101708.94;;;10.42;60.46
13952;BME280;39535;52.192;9.886;2023-04-20T10:44:47;101730.66;;;10.38;60.57
13952;BME280;39535;52.192;9.886;2023-04-20T10:47:13;101728.91;;;10.38;61.62
13952;BME280;39535;52.192;9.886;2023-04-20T10:49:40;101707.16;;;10.31;63.13
13952;BME280;39535;52.192;9.886;2023-04-20T10:52:06;101702.78;;;10.27;62.48
13952;BME280;39535;52.192;9.886;2023-04-20T10:54:36;101683.69;;;10.31;61.33
13952;BME280;39535;52.192;9.886;2023-04-20T10:57:04;101681.94;;;10.35;62.34
13952;BME280;39535;52.192;9.886;2023-04-20T10:59:31;101700.19;;;10.32;60.33
13952;BME280;39535;52.192;9.886;2023-04-20T11:01:59;101705.41;;;10.30;59.61
13952;BME280;39535;52.192;9.886;2023-04-20T11:04:29;101736.66;;;10.18;59.88
13952;BME280;39535;52.192;9.886;2023-04-20T11:07:06;101742.75;;;10.16;60.29
13952;BME280;39535;52.192;9.886;2023-04-20T11:09:52;101747.09;;;10.09;60.44
13952;BME280;39535;52.192;9.886;2023-04-20T11:12:19;101740.09;;;10.08;60.21
13952;BME280;39535;52.192;9.886;2023-04-20T11:14:52;101747.94;;;10.09;61.35
13952;BME280;39535;52.192;9.886;2023-04-20T11:17:19;101721.06;;;10.30;61.76
13952;BME280;39535;52.192;9.886;2023-04-20T11:19:46;101703.72;;;10.45;60.44
13952;BME280;39535;52.192;9.886;2023-04-20T11:22:20;101710.72;;;10.57;60.12
13952;BME280;39535;52.192;9.886;2023-04-20T11:24:48;101718.53;;;10.57;58.66
13952;BME280;39535;52.192;9.886;2023-04-20T11:27:18;101738.53;;;10.50;60.51
13952;BME280;39535;52.192;9.886;2023-04-20T11:29:55;101710.72;;;10.67;59.78
13952;BME280;39535;52.192;9.886;2023-04-20T11:32:22;101726.38;;;10.60;61.12
13952;BME280;39535;52.192;9.886;2023-04-20T11:38:00;101689.84;;;10.84;60.07
13952;BME280;39535;52.192;9.886;2023-04-20T11:40:27;101709.00;;;11.00;59.81
13952;BME280;39535;52.192;9.886;2023-04-20T11:42:54;101699.31;;;11.58;58.80
13952;BME280;39535;52.192;9.886;2023-04-20T11:45:20;101712.59;;;12.90;55.72
13952;BME280;39535;52.192;9.886;2023-04-20T11:47:47;101782.94;;;14.26;51.60
13952;BME280;39535;52.192;9.886;2023-04-20T11:50:14;101884.94;;;15.28;49.50
13952;BME280;39535;52.192;9.886;2023-04-20T11:52:41;102024.59;;;15.78;45.96
13952;BME280;39535;52.192;9.886;2023-04-20T11:55:07;102148.22;;;15.87;46.27
13952;BME280;39535;52.192;9.886;2023-04-20T11:57:39;102184.78;;;17.21;44.24
13952;BME280;39535;52.192;9.886;2023-04-20T12:00:07;102270.06;;;18.18;40.69
13952;BME280;39535;52.192;9.886;2023-04-20T12:02:33;102340.09;;;19.18;39.63
13952;BME280;39535;52.192;9.886;2023-04-20T12:05:00;102413.16;;;19.27;39.72
13952;BME280;39535;52.192;9.886;2023-04-20T12:07:27;102433.22;;;19.73;39.96
13952;BME280;39535;52.192;9.886;2023-04-20T12:09:53;102442.66;;;19.48;38.81
13952;BME280;39535;52.192;9.886;2023-04-20T12:12:19;102453.66;;;18.90;38.88
13952;BME280;39535;52.192;9.886;2023-04-20T12:14:47;102473.31;;;18.80;40.27
13952;BME280;39535;52.192;9.886;2023-04-20T12:17:13;102422.78;;;18.91;39.98
13952;BME280;39535;52.192;9.886;2023-04-20T12:19:40;102427.03;;;18.11;39.97
13952;BME280;39535;52.192;9.886;2023-04-20T12:22:20;102440.78;;;17.21;41.44
13952;BME280;39535;52.192;9.886;2023-04-20T12:27:56;102360.34;;;16.16;43.13
13952;BME280;39535;52.192;9.886;2023-04-20T12:30:32;102315.59;;;15.23;44.04
13952;BME280;39535;52.192;9.886;2023-04-20T12:33:00;102253.69;;;14.78;45.73
13952;BME280;39535;52.192;9.886;2023-04-20T12:35:26;102195.22;;;14.39;46.73
13952;BME280;39535;52.192;9.886;2023-04-20T12:37:53;102131.41;;;14.23;47.97
13952;BME280;39535;52.192;9.886;2023-04-20T12:40:20;102054.16;;;14.48;47.80
13952;BME280;39535;52.192;9.886;2023-04-20T12:42:46;102031.47;;;14.40;47.91
13952;BME280;39535;52.192;9.886;2023-04-20T12:45:13;101982.34;;;14.48;47.15
13952;BME280;39535;52.192;9.886;2023-04-20T12:47:41;101978.94;;;14.37;47.31
13952;BME280;39535;52.192;9.886;2023-04-20T12:50:07;101986.88;;;14.30;48.84
13952;BME280;39535;52.192;9.886;2023-04-20T12:52:34;101945.34;;;14.68;47.09
13952;BME280;39535;52.192;9.886;2023-04-20T12:55:01;101938.78;;;15.04;48.06
13952;BME280;39535;52.192;9.886;2023-04-20T12:57:27;101942.78;;;15.30;46.94
13952;BME280;39535;52.192;9.886;2023-04-20T12:59:53;101966.41;;;15.36;46.48
13952;BME280;39535;52.192;9.886;2023-04-20T13:02:20;101968.13;;;15.36;47.10
13952;BME280;39535;52.192;9.886;2023-04-20T13:04:48;101971.78;;;15.25;47.63
13952;BME280;39535;52.192;9.886;2023-04-20T13:07:14;101943.22;;;15.01;46.93
13952;BME280;39535;52.192;9.886;2023-04-20T13:09:41;101960.81;;;14.94;47.26
13952;BME280;39535;52.192;9.886;2023-04-20T13:12:07;101966.38;;;14.69;46.87